createdAt,value
2019-05-03T00:02:49.726Z,8.10
2019-05-03T00:05:32.640Z,10.43
2019-05-03T00:08:08.934Z,10.03
2019-05-03T00:10:42.904Z,15.43
2019-05-03T00:13:16.811Z,10.57
2019-05-03T00:15:59.009Z,10.20
2019-05-03T00:18:34.606Z,13.60
2019-05-03T00:21:08.294Z,11.80
2019-05-03T00:23:42.380Z,13.37
2019-05-03T00:26:17.824Z,15.47
2019-05-03T00:28:52.449Z,8.20
2019-05-03T00:31:27.844Z,16.20
2019-05-03T00:34:05.908Z,12.30
2019-05-03T00:36:44.999Z,11.13
2019-05-03T00:39:29.276Z,11.73
2019-05-03T00:42:04.925Z,11.97
2019-05-03T00:44:39.651Z,13.50
2019-05-03T00:47:13.259Z,6.73
2019-05-03T00:49:51.829Z,12.50
2019-05-03T00:52:27.114Z,7.57
2019-05-03T00:55:02.244Z,8.93
2019-05-03T00:57:45.623Z,7.43
2019-05-03T01:00:21.628Z,12.63
2019-05-03T01:02:56.672Z,8.57
2019-05-03T01:05:33.105Z,15.00
2019-05-03T01:08:08.485Z,10.70
2019-05-03T01:10:45.331Z,12.07
2019-05-03T01:13:19.118Z,11.00
2019-05-03T01:16:02.652Z,13.13
2019-05-03T01:18:36.202Z,12.70
2019-05-03T01:21:11.634Z,14.60
2019-05-03T01:23:45.650Z,12.13
2019-05-03T01:26:22.630Z,8.47
2019-05-03T01:28:57.087Z,9.63
2019-05-03T01:31:38.960Z,13.00
2019-05-03T01:34:12.722Z,8.37
2019-05-03T01:36:46.826Z,13.53
2019-05-03T01:39:22.296Z,9.47
2019-05-03T01:42:04.336Z,6.10
2019-05-03T01:44:39.355Z,15.23
2019-05-03T01:47:21.896Z,14.87
2019-05-03T01:50:05.391Z,9.27
2019-05-03T01:52:42.083Z,13.40
2019-05-03T01:55:16.896Z,19.47
2019-05-03T01:57:52.405Z,12.83
2019-05-03T02:00:27.840Z,12.27
2019-05-03T02:03:12.416Z,8.17
2019-05-03T02:05:52.055Z,12.43
2019-05-03T02:08:26.077Z,18.83
2019-05-03T02:11:02.222Z,16.27
2019-05-03T02:13:36.786Z,4.67
2019-05-03T02:16:12.892Z,7.93
2019-05-03T02:18:51.854Z,12.07
2019-05-03T02:21:27.825Z,15.47
2019-05-03T02:24:02.574Z,14.13
2019-05-03T02:26:38.512Z,16.63
2019-05-03T02:29:12.665Z,9.60
2019-05-03T02:31:47.454Z,10.47
2019-05-03T02:34:23.941Z,11.90
2019-05-03T02:36:58.333Z,12.47
2019-05-03T02:39:33.481Z,10.27
2019-05-03T02:42:11.635Z,7.50
2019-05-03T02:44:46.264Z,10.53
2019-05-03T02:47:31.510Z,14.60
2019-05-03T02:50:16.439Z,9.93
2019-05-03T02:52:49.034Z,10.80
2019-05-03T02:55:22.750Z,12.50
2019-05-03T02:57:58.623Z,11.60
2019-05-03T03:01:02.748Z,18.90
2019-05-03T03:03:38.357Z,13.23
2019-05-03T03:06:15.754Z,18.57
2019-05-03T03:08:51.653Z,16.43
2019-05-03T03:11:28.977Z,11.67
2019-05-03T03:14:05.724Z,16.37
2019-05-03T03:16:45.295Z,10.57
2019-05-03T03:19:20.687Z,13.03
2019-05-03T03:22:00.578Z,15.03
2019-05-03T03:24:38.584Z,14.80
2019-05-03T03:27:17.724Z,13.87
2019-05-03T03:29:59.952Z,7.67
2019-05-03T03:32:38.823Z,8.07
2019-05-03T03:35:22.309Z,9.30
2019-05-03T03:38:05.721Z,17.17
2019-05-03T03:40:41.233Z,7.13
2019-05-03T03:43:17.975Z,12.87
2019-05-03T03:45:55.713Z,12.30
2019-05-03T03:48:35.345Z,11.90
2019-05-03T03:51:15.377Z,13.63
2019-05-03T03:53:50.484Z,21.57
2019-05-03T03:56:28.971Z,16.53
2019-05-03T03:59:05.735Z,13.03
2019-05-03T04:01:40.480Z,14.93
2019-05-03T04:04:16.131Z,12.43
2019-05-03T04:06:58.416Z,17.03
2019-05-03T04:09:31.192Z,6.00
2019-05-03T04:12:06.038Z,12.83
2019-05-03T04:14:47.315Z,15.10
2019-05-03T04:17:47.308Z,5.43
2019-05-03T04:20:25.761Z,19.80
2019-05-03T04:23:00.636Z,15.63
2019-05-03T04:25:36.448Z,13.80
2019-05-03T04:28:12.338Z,6.53
2019-05-03T04:30:47.275Z,22.30
2019-05-03T04:33:22.714Z,9.77
2019-05-03T04:35:56.771Z,9.00
2019-05-03T04:38:31.102Z,15.30
2019-05-03T04:41:06.213Z,9.70
2019-05-03T04:43:40.960Z,9.13
2019-05-03T04:46:25.818Z,18.40
2019-05-03T04:49:00.126Z,23.80
2019-05-03T04:51:35.106Z,28.50
2019-05-03T04:54:45.142Z,11.47
2019-05-03T04:57:35.177Z,9.97
2019-05-03T04:59:57.444Z,12.47
2019-05-03T05:02:31.221Z,7.83
2019-05-03T05:05:06.309Z,5.67
2019-05-03T05:07:40.071Z,11.53
2019-05-03T05:12:46.152Z,7.57
2019-05-03T05:15:21.090Z,10.10
2019-05-03T05:18:26.546Z,10.30
2019-05-03T05:21:08.087Z,13.13
2019-05-03T05:23:58.788Z,6.93
2019-05-03T05:27:06.811Z,11.37
2019-05-03T05:29:42.027Z,12.23
2019-05-03T05:32:18.407Z,10.90
2019-05-03T05:34:52.001Z,13.50
2019-05-03T05:37:25.797Z,10.43
2019-05-03T05:40:00.013Z,5.77
2019-05-03T05:42:35.829Z,8.43
2019-05-03T05:45:10.056Z,10.27
2019-05-03T05:47:58.221Z,7.60
2019-05-03T05:50:41.135Z,8.70
2019-05-03T05:53:16.384Z,3.13
2019-05-03T05:56:19.142Z,18.60
2019-05-03T05:59:14.815Z,5.83
2019-05-03T06:01:59.157Z,13.73
2019-05-03T06:04:34.791Z,9.83
2019-05-03T06:07:24.829Z,12.73
2019-05-03T06:10:19.431Z,11.73
2019-05-03T06:13:00.395Z,17.63
2019-05-03T06:15:44.818Z,10.13
2019-05-03T06:18:25.075Z,7.97
2019-05-03T06:21:22.398Z,7.90
2019-05-03T06:24:00.856Z,6.83
2019-05-03T06:26:39.259Z,6.37
2019-05-03T06:29:14.811Z,9.77
2019-05-03T06:31:55.671Z,7.77
2019-05-03T06:34:29.433Z,7.00
2019-05-03T06:37:08.931Z,14.63
2019-05-03T06:39:45.397Z,8.60
2019-05-03T06:42:22.820Z,8.17
2019-05-03T06:44:59.680Z,8.40
2019-05-03T06:47:34.838Z,9.17
2019-05-03T06:50:09.214Z,17.63
2019-05-03T06:52:46.499Z,8.20
2019-05-03T06:55:24.773Z,5.10
2019-05-03T06:58:00.805Z,8.17
2019-05-03T07:00:42.863Z,12.47
2019-05-03T07:03:28.588Z,6.90
2019-05-03T07:06:34.547Z,17.83
2019-05-03T07:09:19.042Z,20.43
2019-05-03T07:11:52.747Z,17.70
2019-05-03T07:14:30.518Z,18.87
2019-05-03T07:17:05.994Z,33.33
2019-05-03T07:19:40.652Z,25.23
2019-05-03T07:22:15.223Z,14.83
2019-05-03T07:24:50.078Z,11.00
2019-05-03T07:27:26.643Z,11.73
2019-05-03T07:30:02.292Z,13.93
2019-05-03T07:32:36.425Z,9.17
2019-05-03T07:35:10.154Z,18.30
2019-05-03T07:37:45.363Z,13.63
2019-05-03T07:40:19.242Z,15.23
2019-05-03T07:42:52.905Z,6.67
2019-05-03T07:45:26.782Z,11.13
2019-05-03T07:48:00.795Z,4.50
2019-05-03T07:50:35.730Z,7.80
2019-05-03T07:53:10.193Z,7.20
2019-05-03T07:56:08.838Z,4.67
2019-05-03T07:58:52.959Z,7.77
2019-05-03T08:01:25.449Z,10.73
2019-05-03T08:04:01.964Z,7.90
2019-05-03T08:06:35.924Z,6.20
2019-05-03T08:09:11.744Z,7.33
2019-05-03T08:11:45.846Z,8.37
2019-05-03T08:14:19.496Z,7.37
2019-05-03T08:16:54.863Z,9.20
2019-05-03T08:19:28.859Z,8.90
2019-05-03T08:22:04.850Z,9.73
2019-05-03T08:24:39.882Z,10.23
2019-05-03T08:27:14.843Z,5.77
2019-05-03T08:29:50.430Z,11.23
2019-05-03T08:32:52.383Z,10.33
2019-05-03T08:35:31.840Z,10.90
2019-05-03T08:38:06.752Z,6.50
2019-05-03T08:40:46.604Z,6.87
2019-05-03T08:43:20.627Z,6.50
2019-05-03T08:45:55.355Z,8.63
2019-05-03T08:48:29.196Z,4.77
2019-05-03T08:51:04.762Z,7.70
2019-05-03T08:53:38.499Z,7.77
2019-05-03T08:56:12.064Z,8.30
2019-05-03T08:58:45.910Z,4.77
2019-05-03T09:01:21.981Z,6.77
2019-05-03T09:03:56.227Z,6.37
2019-05-03T09:06:30.108Z,7.70
2019-05-03T09:09:08.539Z,8.40
2019-05-03T09:11:42.169Z,5.87
2019-05-03T09:14:15.831Z,10.60
2019-05-03T09:16:49.682Z,8.87
2019-05-03T09:19:25.231Z,7.73
2019-05-03T09:21:59.090Z,3.63
2019-05-03T09:24:34.995Z,4.40
2019-05-03T09:27:09.470Z,7.57
2019-05-03T09:29:46.340Z,9.60
2019-05-03T09:32:20.154Z,7.53
2019-05-03T09:34:55.028Z,4.50
2019-05-03T09:37:30.738Z,12.03
2019-05-03T09:40:07.680Z,5.33
2019-05-03T09:42:44.513Z,5.00
2019-05-03T09:45:18.646Z,9.43
2019-05-03T09:47:52.317Z,5.47
2019-05-03T09:50:31.255Z,9.30
2019-05-03T09:53:05.499Z,8.50
2019-05-03T09:55:41.768Z,17.10
2019-05-03T09:58:15.510Z,9.00
2019-05-03T10:00:51.694Z,10.93
2019-05-03T10:03:25.386Z,9.30
2019-05-03T10:06:01.463Z,7.37
2019-05-03T10:08:35.809Z,9.23
2019-05-03T10:11:15.143Z,8.27
2019-05-03T10:13:48.990Z,7.20
2019-05-03T10:16:25.593Z,7.43
2019-05-03T10:19:01.473Z,14.37
2019-05-03T10:21:36.892Z,4.43
2019-05-03T10:24:12.910Z,4.33
2019-05-03T10:26:48.797Z,6.90
2019-05-03T10:29:22.512Z,11.30
2019-05-03T10:32:05.425Z,8.60
2019-05-03T10:34:40.872Z,4.00
2019-05-03T10:37:30.972Z,5.73
2019-05-03T10:40:08.126Z,6.57
2019-05-03T10:42:42.111Z,4.90
2019-05-03T10:45:16.367Z,7.97
2019-05-03T10:47:52.320Z,2.60
2019-05-03T10:50:26.131Z,3.13
2019-05-03T10:53:05.405Z,7.50
2019-05-03T10:55:39.414Z,7.23
2019-05-03T10:58:19.105Z,7.07
2019-05-03T11:00:56.755Z,4.83
2019-05-03T11:03:30.945Z,5.60
2019-05-03T11:06:05.521Z,4.97
2019-05-03T11:08:39.649Z,10.27
2019-05-03T11:11:15.063Z,7.43
2019-05-03T11:13:50.052Z,8.70
2019-05-03T11:16:25.721Z,5.40
2019-05-03T11:18:59.404Z,6.83
2019-05-03T11:21:35.566Z,10.63
2019-05-03T11:24:10.298Z,10.17
2019-05-03T11:26:45.766Z,11.53
2019-05-03T11:29:21.016Z,7.33
2019-05-03T11:32:16.690Z,5.60
2019-05-03T11:35:11.701Z,6.63
2019-05-03T11:37:59.501Z,4.07
2019-05-03T11:40:34.613Z,4.77
2019-05-03T11:43:09.452Z,7.57
2019-05-03T11:48:03.588Z,11.10
2019-05-03T11:50:38.317Z,13.13
2019-05-03T11:53:14.530Z,7.70
2019-05-03T11:55:48.442Z,6.20
2019-05-03T11:58:27.293Z,7.53
2019-05-03T12:01:25.702Z,10.23
2019-05-03T12:04:04.990Z,3.97
2019-05-03T12:06:39.333Z,11.40
2019-05-03T12:09:15.522Z,8.37
2019-05-03T12:11:49.338Z,9.60
2019-05-03T12:14:24.516Z,5.43
2019-05-03T12:17:18.222Z,10.20
2019-05-03T12:19:41.820Z,10.20
2019-05-03T12:22:18.651Z,13.47
2019-05-03T12:24:54.978Z,5.30
2019-05-03T12:27:31.083Z,7.70
2019-05-03T12:30:06.424Z,8.70
2019-05-03T12:32:40.440Z,7.43
2019-05-03T12:35:15.340Z,7.90
2019-05-03T12:37:49.182Z,3.50
2019-05-03T12:40:25.499Z,8.97
2019-05-03T12:43:00.305Z,6.57
2019-05-03T12:45:35.413Z,9.13
2019-05-03T12:48:09.753Z,6.53
2019-05-03T12:50:46.136Z,5.43
2019-05-03T12:53:21.936Z,4.70
2019-05-03T12:55:54.661Z,8.00
2019-05-03T12:58:55.191Z,9.00
2019-05-03T13:01:47.925Z,7.07
2019-05-03T13:04:24.871Z,10.23
2019-05-03T13:07:05.765Z,5.50
2019-05-03T13:09:40.678Z,6.50
2019-05-03T13:12:16.942Z,9.10
2019-05-03T13:14:50.634Z,4.20
2019-05-03T13:17:48.911Z,8.23
2019-05-03T13:20:24.637Z,3.33
2019-05-03T13:22:58.480Z,8.67
2019-05-03T13:25:32.279Z,6.93
2019-05-03T13:28:06.222Z,3.70
2019-05-03T13:30:42.091Z,8.63
2019-05-03T13:33:16.264Z,4.63
2019-05-03T13:35:50.309Z,5.10
2019-05-03T13:38:25.070Z,4.13
2019-05-03T13:40:59.941Z,5.70
2019-05-03T13:43:34.821Z,9.77
2019-05-03T13:46:08.991Z,4.00
2019-05-03T13:48:46.659Z,7.37
2019-05-03T13:51:25.347Z,5.47
2019-05-03T13:53:59.218Z,5.73
2019-05-03T13:56:35.311Z,4.93
2019-05-03T13:59:18.944Z,6.13
2019-05-03T14:01:45.082Z,6.30
2019-05-03T14:04:18.964Z,8.50
2019-05-03T14:06:55.111Z,6.23
2019-05-03T14:09:28.764Z,9.30
2019-05-03T14:12:05.590Z,7.80
2019-05-03T14:14:56.024Z,8.23
2019-05-03T14:17:29.864Z,8.57
2019-05-03T14:20:26.516Z,11.23
2019-05-03T14:23:00.480Z,9.10
2019-05-03T14:25:35.126Z,9.60
2019-05-03T14:28:11.073Z,21.53
2019-05-03T14:30:45.578Z,8.77
2019-05-03T14:33:19.151Z,6.27
2019-05-03T14:35:54.728Z,12.57
2019-05-03T14:38:29.843Z,7.10
2019-05-03T14:41:05.514Z,7.30
2019-05-03T14:43:39.386Z,10.13
2019-05-03T14:46:14.969Z,4.37
2019-05-03T14:48:50.069Z,10.10
2019-05-03T14:51:25.377Z,11.10
2019-05-03T14:54:01.534Z,11.00
2019-05-03T14:57:22.895Z,7.87
2019-05-03T15:00:17.345Z,4.63
2019-05-03T15:03:04.701Z,14.00
2019-05-03T15:05:39.443Z,9.00
2019-05-03T15:08:15.036Z,11.97
2019-05-03T15:10:48.750Z,6.43
2019-05-03T15:13:25.287Z,4.97
2019-05-03T15:16:02.461Z,6.40
2019-05-03T15:18:36.508Z,9.53
2019-05-03T15:21:14.635Z,8.90
2019-05-03T15:23:49.361Z,9.43
2019-05-03T15:26:24.893Z,11.77
2019-05-03T15:28:59.769Z,11.80
2019-05-03T15:31:35.400Z,5.57
2019-05-03T15:34:11.373Z,7.80
2019-05-03T15:36:47.088Z,6.23
2019-05-03T15:39:22.534Z,8.27
2019-05-03T15:41:57.203Z,5.43
2019-05-03T15:48:04.418Z,4.30
2019-05-03T15:50:38.332Z,11.27
2019-05-03T15:53:12.103Z,6.30
2019-05-03T15:55:45.875Z,6.20
2019-05-03T15:58:20.180Z,13.30
2019-05-03T16:00:55.419Z,8.00
2019-05-03T16:03:29.432Z,7.73
2019-05-03T16:06:04.854Z,8.37
2019-05-03T16:08:39.960Z,10.07
2019-05-03T16:11:14.841Z,7.03
2019-05-03T16:13:49.700Z,8.63
2019-05-03T16:16:25.117Z,7.37
2019-05-03T16:19:00.082Z,4.53
2019-05-03T16:21:36.804Z,9.40
2019-05-03T16:24:10.540Z,13.07
2019-05-03T16:27:01.849Z,7.80
2019-05-03T16:29:35.554Z,7.10
2019-05-03T16:32:10.896Z,11.60
2019-05-03T16:34:44.905Z,3.70
2019-05-03T16:37:18.984Z,10.13
2019-05-03T16:39:54.659Z,5.90
2019-05-03T16:42:28.549Z,5.57
2019-05-03T16:45:05.599Z,7.80
2019-05-03T16:47:39.604Z,8.27
2019-05-03T16:50:14.521Z,5.80
2019-05-03T16:52:48.656Z,13.40
2019-05-03T16:55:22.241Z,4.23
2019-05-03T16:57:56.090Z,12.13
2019-05-03T17:00:29.654Z,6.60
2019-05-03T17:03:05.550Z,8.57
2019-05-03T17:05:57.107Z,8.70
2019-05-03T17:11:32.367Z,13.17
2019-05-03T17:14:06.549Z,9.57
2019-05-03T17:16:42.096Z,12.90
2019-05-03T17:19:17.563Z,9.30
2019-05-03T17:21:52.378Z,11.07
2019-05-03T17:24:26.921Z,7.30
2019-05-03T17:27:00.748Z,3.60
2019-05-03T17:29:36.146Z,4.70
2019-05-03T17:32:12.750Z,6.50
2019-05-03T17:34:46.595Z,10.30
2019-05-03T17:37:23.076Z,10.97
2019-05-03T17:40:22.826Z,11.80
2019-05-03T17:43:15.058Z,7.03
2019-05-03T17:45:51.952Z,9.30
2019-05-03T17:48:25.737Z,8.00
2019-05-03T17:51:01.985Z,10.30
2019-05-03T17:53:55.267Z,7.13
2019-05-03T17:56:52.596Z,7.77
2019-05-03T17:59:31.419Z,12.37
2019-05-03T18:02:25.053Z,25.20
2019-05-03T18:05:17.714Z,29.27
2019-05-03T18:08:27.044Z,48.70
2019-05-03T18:11:17.535Z,14.67
2019-05-03T18:13:52.761Z,11.50
2019-05-03T18:16:26.583Z,19.60
2019-05-03T18:19:00.484Z,20.57
2019-05-03T18:21:37.005Z,18.63
2019-05-03T18:24:10.726Z,13.77
2019-05-03T18:26:45.324Z,18.50
2019-05-03T18:29:19.092Z,33.33
2019-05-03T18:31:55.054Z,26.60
2019-05-03T18:34:30.816Z,28.20
2019-05-03T18:37:05.362Z,54.53
2019-05-03T18:39:40.131Z,48.77
2019-05-03T18:42:18.572Z,40.60
2019-05-03T18:44:56.984Z,34.43
2019-05-03T18:47:34.401Z,20.53
2019-05-03T18:50:18.243Z,12.37
2019-05-03T18:52:52.315Z,14.93
2019-05-03T18:55:27.915Z,18.93
2019-05-03T18:58:31.807Z,6.47
2019-05-03T19:01:07.004Z,8.13
2019-05-03T19:03:45.431Z,7.33
2019-05-03T19:06:20.379Z,8.00
2019-05-03T19:09:17.493Z,9.07
2019-05-03T19:12:11.048Z,8.03
2019-05-03T19:14:46.989Z,7.60
2019-05-03T19:17:48.551Z,7.03
2019-05-03T19:20:25.123Z,14.00
2019-05-03T19:23:00.448Z,6.30
2019-05-03T19:25:45.743Z,10.10
2019-05-03T19:28:10.895Z,7.53
2019-05-03T19:30:47.164Z,6.83
2019-05-03T19:33:22.227Z,10.43
2019-05-03T19:35:56.482Z,10.03
2019-05-03T19:38:34.979Z,6.13
2019-05-03T19:41:08.513Z,7.50
2019-05-03T19:43:47.305Z,12.40
2019-05-03T19:46:40.760Z,10.70
2019-05-03T19:49:14.778Z,5.53
2019-05-03T19:51:48.553Z,7.63
2019-05-03T19:54:23.747Z,6.70
2019-05-03T19:57:00.242Z,7.80
2019-05-03T19:59:56.718Z,5.93
2019-05-03T20:03:09.204Z,8.27
2019-05-03T20:06:01.699Z,6.73
2019-05-03T20:08:39.561Z,8.03
2019-05-03T20:11:18.467Z,8.30
2019-05-03T20:13:55.210Z,10.17
2019-05-03T20:16:30.477Z,10.97
2019-05-03T20:19:17.970Z,5.13
2019-05-03T20:21:42.982Z,7.73
2019-05-03T20:24:17.050Z,6.13
2019-05-03T20:26:53.896Z,9.50
2019-05-03T20:29:28.852Z,5.77
2019-05-03T20:32:02.594Z,6.03
2019-05-03T20:34:36.704Z,10.13
2019-05-03T20:37:14.687Z,6.27
2019-05-03T20:39:50.375Z,5.97
2019-05-03T20:42:41.772Z,8.60
2019-05-03T20:45:24.919Z,6.97
2019-05-03T20:48:00.176Z,8.07
2019-05-03T20:50:35.251Z,7.30
2019-05-03T20:53:09.120Z,4.70
2019-05-03T20:55:45.156Z,8.90
2019-05-03T20:58:19.030Z,8.63
2019-05-03T21:00:54.554Z,9.43
2019-05-03T21:03:29.440Z,4.33
2019-05-03T21:06:05.015Z,7.97
2019-05-03T21:08:52.216Z,13.60
2019-05-03T21:11:18.701Z,7.50
2019-05-03T21:13:53.500Z,5.23
2019-05-03T21:16:46.458Z,5.73
2019-05-03T21:19:45.231Z,8.33
2019-05-03T21:22:29.675Z,5.73
2019-05-03T21:25:11.908Z,7.40
2019-05-03T21:27:45.584Z,9.53
2019-05-03T21:30:19.265Z,6.70
2019-05-03T21:32:54.918Z,7.23
2019-05-03T21:35:39.404Z,4.90
2019-05-03T21:38:06.386Z,7.73
2019-05-03T21:40:40.044Z,7.23
2019-05-03T21:43:15.271Z,6.80
2019-05-03T21:45:56.975Z,7.30
2019-05-03T21:48:51.144Z,4.00
2019-05-03T21:51:25.081Z,13.60
2019-05-03T21:54:00.527Z,8.20
2019-05-03T21:56:36.063Z,8.60
2019-05-03T21:59:11.085Z,5.33
2019-05-03T22:01:48.616Z,5.77
2019-05-03T22:04:24.892Z,7.03
2019-05-03T22:06:58.680Z,10.93
2019-05-03T22:09:32.352Z,9.80
2019-05-03T22:12:06.003Z,17.10
2019-05-03T22:14:45.472Z,8.10
2019-05-03T22:17:44.781Z,6.97
2019-05-03T22:20:37.426Z,6.33
2019-05-03T22:23:22.385Z,6.80
2019-05-03T22:25:57.832Z,8.87
2019-05-03T22:28:31.848Z,5.70
2019-05-03T22:31:06.860Z,6.93
2019-05-03T22:33:46.093Z,12.13
2019-05-03T22:36:19.347Z,9.90
2019-05-03T22:38:54.497Z,8.97
2019-05-03T22:41:28.602Z,6.77
2019-05-03T22:44:02.375Z,14.67
2019-05-03T22:46:37.296Z,10.30
2019-05-03T22:49:11.311Z,6.93
2019-05-03T22:51:45.245Z,7.37
2019-05-03T22:54:20.602Z,10.00
2019-05-03T22:56:55.678Z,8.83
2019-05-03T22:59:30.558Z,5.30
2019-05-03T23:02:04.552Z,6.77
2019-05-03T23:04:38.153Z,15.07
2019-05-03T23:07:14.930Z,6.13
2019-05-03T23:09:48.854Z,4.83
2019-05-03T23:12:26.431Z,3.20
2019-05-03T23:15:00.243Z,6.33
2019-05-03T23:17:35.077Z,10.40
2019-05-03T23:20:25.467Z,11.27
2019-05-03T23:23:00.701Z,5.00
2019-05-03T23:25:35.589Z,6.70
2019-05-03T23:28:12.195Z,4.13
2019-05-03T23:30:48.192Z,3.83
2019-05-03T23:33:21.807Z,3.60
2019-05-03T23:35:55.569Z,3.57
2019-05-03T23:38:30.197Z,8.37
2019-05-03T23:41:04.813Z,4.93
2019-05-03T23:43:39.156Z,7.53
2019-05-03T23:46:14.623Z,5.17
2019-05-03T23:48:48.287Z,7.20
2019-05-03T23:51:41.039Z,5.90
2019-05-03T23:54:17.403Z,8.50
2019-05-03T23:56:51.056Z,3.80
2019-05-03T23:59:24.832Z,2.40
